Mount Ulla, North Carolina
Current Conditions -  °F | °C
As of 6:55 PM on Saturday 22 Nov 2014 (Local Time) from KRUQ Reporting Station
Clear Clear  
Wind Chill:   Ceiling: Unl
Heat Index:   Visibility: 10mi
Dew Point: -6°   Wind: 0mph
Humidity: 46%   Direction: NA
Pressure: 30.35"   Gusts: NA
Location:  35.66°N, 80.73°W
Report Text: KRUQ 222355Z AUTO 00000KT 10SM CLR 04/M06 A3035 RMK AO2 T00431064 10118 20043
Loading
Personal Weather Stations






























Interactive Weather Map New forecast layout! Learn more

10-Day Weather Forecast

Advertisements
Track Severe Weather on mobile